Flight Track Log - Related Links

Times and Time Zones

All times are in EDT time to prevent confusion due to time zone crossing. See the TCF3494 flight status page for this flight to view local times or setup timezone preferences in your user account.


Time Position Orientation Groundspeed Altitude Reporting Facility
EDT Latitude Longitude Course Direction KTS MPH feet Rate Location/Type
Thu 05:08:09 PM 41.9333 -87.8833 90° East 182 209 2,400  Level Chicago TRACON
Thu 05:09:09 PM 41.8833 -87.8333 143° Southeast 240 276 4,300 2,429 Climbing Chicago TRACON
Thu 05:10:57 PM 41.8228 -87.6981 121° Southeast 275 316 9,200 2,824 Climbing Chicago Center
Thu 05:11:00 PM 41.9333 -87.1145 90° East  Level FlightAware Approximate
Thu 05:11:59 PM 41.8183 -87.5633 92° East 301 346 12,300  Level Chicago Center
Thu 05:12:00 PM 41.9333 -86.9569 90° East  Level FlightAware Approximate
Thu 05:13:00 PM 41.9333 -86.7993 90° East  Level FlightAware Approximate
Thu 05:13:01 PM 41.8481 -87.4461 71° East 328 377 14,300  Level Chicago Center
Thu 05:14:03 PM 41.8814 -87.3156 71° East 362 417 17,000 2,323 Climbing Chicago Center
Thu 05:15:05 PM 41.9147 -87.1850 71° East 370 426 19,100 2,129 Climbing Chicago Center
Thu 05:16:07 PM 41.9453 -87.0475 73° East 381 438 21,400 2,081 Climbing Chicago Center
Thu 05:17:09 PM 41.9481 -86.8617 89° East 410 472 23,400 1,872 Climbing Chicago Center
Thu 05:18:12 PM 41.9497 -86.7039 89° East 422 486 25,300 1,728 Climbing Chicago Center
Thu 05:19:14 PM 41.9514 -86.5300 89° East 436 502 27,000 1,500 Climbing Chicago Center
Thu 05:20:16 PM 41.9544 -86.3631 89° East 446 513 28,400 1,210 Climbing Chicago Center
Thu 05:21:18 PM 41.9531 -86.1925 91° East 454 522 29,500 1,016 Climbing Chicago Center
Thu 05:22:20 PM 41.9364 -86.0150 97° East 473 544 30,500 968 Climbing Chicago Center
Thu 05:23:22 PM 41.9194 -85.8344 97° East 483 556 31,500 823 Climbing Chicago Center
Thu 05:24:24 PM 41.9019 -85.6503 97° East 491 565 32,200 774 Climbing Chicago Center
Thu 05:25:26 PM 41.8847 -85.4628 97° East 498 573 33,100 823 Climbing Chicago Center
Thu 05:26:28 PM 41.8656 -85.2750 98° East 500 575 33,900 833 Climbing Chicago Center
Thu 05:27:14 PM 41.8517 -85.1164 97° East 501 577 34,600 623 Climbing Cleveland Center
Thu 05:28:14 PM 41.8317 -84.9311 98° East 501 577 35,000 200 Climbing Cleveland Center
Thu 05:29:14 PM 41.8133 -84.7486 98° East 501 577 35,000  Level Cleveland Center
Thu 05:30:14 PM 41.7928 -84.5661 99° East 501 577 35,000  Level Cleveland Center
Thu 05:31:14 PM 41.7803 -84.3789 95° East 501 577 35,000  Level Cleveland Center
Thu 05:32:14 PM 41.7744 -84.1753 92° East 501 577 35,000  Level Cleveland Center
Thu 05:33:15 PM 41.7739 -83.9886 90° East 501 577 35,000  Level Cleveland Center
Thu 05:34:14 PM 41.7708 -83.8072 91° East 496 571 35,000  Level Cleveland Center
Thu 05:35:14 PM 41.7717 -83.6208 90° East 496 571 35,000  Level Cleveland Center
Thu 05:36:14 PM 41.7578 -83.4364 96° East 496 571 35,000  Level Cleveland Center
Thu 05:37:14 PM 41.7431 -83.2689 97° East 505 581 35,000  Level Cleveland Center
Thu 05:38:14 PM 41.7219 -83.0869 99° East 505 581 35,000  Level Cleveland Center
Thu 05:39:14 PM 41.7050 -82.9000 97° East 505 581 35,000  Level Cleveland Center
Thu 05:40:14 PM 41.6858 -82.7158 98° East 505 581 35,000  Level Cleveland Center
Thu 05:41:14 PM 41.6681 -82.5372 98° East 505 581 35,000  Level Cleveland Center
Thu 05:42:14 PM 41.6503 -82.3533 97° East 500 575 35,000  Level Cleveland Center
Thu 05:43:14 PM 41.6300 -82.1750 99° East 495 570 35,000 -350 Level Cleveland Center
Thu 05:44:14 PM 41.6094 -81.9939 99° East 495 570 34,300 -700 Descending Cleveland Center
Thu 05:45:14 PM 41.5889 -81.7936 98° East 495 570 33,600 -650 Descending Cleveland Center
Thu 05:46:14 PM 41.5675 -81.6128 99° East 488 562 33,000 -300 Descending Cleveland Center
Thu 05:47:14 PM 41.5461 -81.4378 99° East 488 562 33,000  Level Cleveland Center
Thu 05:48:14 PM 41.5264 -81.2544 98° East 488 562 33,000  Level Cleveland Center
Thu 05:49:14 PM 41.5086 -81.0767 98° East 488 562 33,000  Level Cleveland Center
Thu 05:50:14 PM 41.4925 -80.8964 97° East 488 562 33,000  Level Cleveland Center
Thu 05:51:14 PM 41.4764 -80.7328 97° East 483 556 33,000  Level Cleveland Center
Thu 05:52:14 PM 41.4617 -80.5556 96° East 483 556 33,000  Level Cleveland Center
Thu 05:53:14 PM 41.4450 -80.3781 97° East 483 556 33,000  Level Cleveland Center
Thu 05:54:14 PM 41.4300 -80.1981 96° East 483 556 33,000  Level Cleveland Center
Thu 05:55:14 PM 41.4125 -80.0211 97° East 483 556 33,000  Level Cleveland Center
Thu 05:56:14 PM 41.3947 -79.8442 98° East 483 556 33,000  Level Cleveland Center
Thu 05:57:14 PM 41.3769 -79.6644 97° East 483 556 33,000  Level Cleveland Center
Thu 05:58:14 PM 41.3586 -79.4878 98° East 483 556 33,000  Level Cleveland Center
Thu 05:59:14 PM 41.3422 -79.3136 97° East 483 556 33,000  Level Cleveland Center
Thu 06:00:14 PM 41.3233 -79.1342 98° East 483 556 33,000  Level Cleveland Center
Thu 06:01:14 PM 41.3044 -78.9578 98° East 483 556 33,000  Level Cleveland Center
Thu 06:02:14 PM 41.2850 -78.7814 98° East 483 556 33,000  Level Cleveland Center
Thu 06:03:14 PM 41.2675 -78.6025 97° East 483 556 33,000  Level Cleveland Center
Thu 06:04:14 PM 41.2475 -78.4261 99° East 483 556 33,000  Level Cleveland Center
Thu 06:05:29 PM 41.2217 -78.2111 99° East 490 564 33,000  Level New York Center
Thu 06:06:27 PM 41.2014 -78.0322 99° East 490 564 33,000  Level New York Center
Thu 06:07:27 PM 41.1786 -77.8561 100° East 490 564 33,000  Level New York Center
Thu 06:08:26 PM 41.1553 -77.6856 100° East 490 564 33,000  Level New York Center
Thu 06:09:28 PM 41.1344 -77.5069 99° East 490 564 33,000  Level New York Center
Thu 06:10:28 PM 41.1078 -77.3142 100° East 490 564 33,000 -893 Level New York Center
Thu 06:11:29 PM 41.0861 -77.1358 99° East 490 564 31,200 -2,200 Descending New York Center
Thu 06:12:28 PM 41.0619 -76.9631 100° East 490 564 28,600 -2,542 Descending New York Center
Thu 06:13:27 PM 41.0394 -76.7958 100° East 480 552 26,200 -2,300 Descending New York Center
Thu 06:14:28 PM 41.0158 -76.6397 101° East 453 521 24,000 -2,164 Descending New York Center
Thu 06:15:29 PM 40.9814 -76.4936 107° East 428 493 21,800 -2,168 Descending New York Center
Thu 06:16:27 PM 40.9464 -76.3533 108° East 412 474 19,700 -1,932 Descending New York Center
Thu 06:17:27 PM 40.9189 -76.2303 106° East 392 451 18,000 -893 Descending New York Center
Thu 06:18:28 PM 40.8853 -76.0958 108° East 387 445 17,900 -836 Descending New York Center
Thu 06:19:29 PM 40.8481 -75.9475 108° East 393 452 16,300 -1,488 Descending New York Center
Thu 06:20:29 PM 40.8183 -75.8192 107° East 379 436 14,900 -1,271 Descending New York Center
Thu 06:21:27 PM 40.7861 -75.6961 109° East 362 417 13,800 -966 Descending New York Center
Thu 06:22:27 PM 40.7578 -75.5736 107° East 357 411 13,000 -397 Descending New York Center
Thu 06:23:28 PM 40.7250 -75.4508 109° East 357 411 13,000  Level New York Center
Thu 06:24:28 PM 40.7008 -75.3258 104° East 352 405 13,000 -99 Level New York Center
Thu 06:25:29 PM 40.6764 -75.2011 104° East 347 399 12,800 -1,006 Descending New York Center
Thu 06:27:27 PM 40.5750 -75.0142 125° Southeast 335 386 10,000 -939 Descending New York Center
Thu 06:28:28 PM 40.5372 -74.9000 113° Southeast 313 360 10,000  Level New York Center
Thu 06:28:45 PM 40.5333 -74.8667 99° East 310 357 10,000  Level New York TRACON
Thu 06:29:45 PM 40.5000 -74.7667 114° Southeast 310 357 10,000  Level New York TRACON
Thu 06:30:45 PM 40.4667 -74.6500 111° Southeast 308 354 10,000  Level New York TRACON
Thu 06:31:45 PM 40.4333 -74.5500 114° Southeast 310 357 10,000 -450 Level New York TRACON
Thu 06:32:45 PM 40.4500 -74.4500 78° East 304 350 9,100 -1,000 Descending New York TRACON
Thu 06:33:39 PM 40.4833 -74.3500 66° East 296 341 8,100 -1,105 Descending New York TRACON
Thu 06:34:39 PM 40.5000 -74.2500 78° East 289 333 7,000 -800 Descending New York TRACON
Thu 06:35:39 PM 40.5333 -74.1667 62° Northeast 245 282 6,500 -750 Descending New York TRACON
Thu 06:36:39 PM 40.5667 -74.1000 57° Northeast 230 265 5,500 -1,150 Descending New York TRACON
Thu 06:37:39 PM 40.6167 -74.0500 37° Northeast 228 262 4,200 -750 Descending New York TRACON
Thu 06:38:39 PM 40.6833 -74.0333 11° North 225 259 4,000 -95 Descending New York TRACON
Thu 06:39:45 PM 40.7500 -74.0167 11° North 226 260 4,000  Level New York TRACON
Thu 06:40:45 PM 40.8000 -73.9833 27° Northeast 223 257 4,000 -150 Level New York TRACON
Thu 06:41:45 PM 40.8500 -73.9500 27° Northeast 223 257 3,700 -421 Descending New York TRACON
Thu 06:42:39 PM 40.9000 -73.9000 37° Northeast 210 242 3,200 -300 Descending New York TRACON
Thu 06:43:45 PM 40.9500 -73.8500 37° Northeast 188 216 3,100 -50 Descending New York TRACON
Thu 06:44:39 PM 40.9500 -73.8000 90° East 199 229 3,100 -368 Level New York TRACON
Thu 06:45:39 PM 40.9000 -73.7833 166° South 184 212 2,400 -700 Descending New York TRACON

Login

Don't have an account? Register now (free) for customized features, flight alerts, and more!